Time;durP1;ratioP1;P1;durP2;ratioP2;P2;SDS_P1;SDS_P2;PMS_P1;PMS_P2;Temp;Humidity;BMP_temperature;BMP_pressure;BME280_temperature;BME280_humidity;BME280_pressure;Samples;Min_cycle;Max_cycle;Signal;HPM_P1;HPM_P2
2021/09/07 00:00:14;;;;;;;9.03;8.13;;;24.80;49.90;;;;;;5011485;28;20190;-46
2021/09/07 00:02:40;;;;;;;9.13;8.30;;;24.90;50.10;;;;;;5009017;28;20658;-45
2021/09/07 00:05:07;;;;;;;11.20;8.93;;;24.90;49.80;;;;;;5012325;28;20448;-46
2021/09/07 00:07:33;;;;;;;9.13;8.23;;;25.00;49.60;;;;;;5012193;28;20436;-49
2021/09/07 00:09:59;;;;;;;10.10;9.20;;;24.90;49.90;;;;;;5009133;28;20484;-45
2021/09/07 00:12:24;;;;;;;9.50;8.70;;;24.90;50.10;;;;;;5010445;28;20217;-46
2021/09/07 00:14:50;;;;;;;9.33;8.53;;;24.80;50.10;;;;;;5012634;28;20558;-46
2021/09/07 00:17:16;;;;;;;11.17;10.17;;;24.80;50.10;;;;;;5010167;28;20194;-49
2021/09/07 00:19:42;;;;;;;10.13;9.23;;;24.80;50.20;;;;;;5009035;28;20190;-46
2021/09/07 00:22:07;;;;;;;9.63;8.60;;;24.80;50.30;;;;;;5009020;28;20252;-45
2021/09/07 00:24:33;;;;;;;9.53;8.53;;;24.80;50.30;;;;;;5009568;28;20227;-48
2021/09/07 00:26:59;;;;;;;9.80;8.80;;;24.80;50.30;;;;;;5009763;28;20202;-47
2021/09/07 00:29:27;;;;;;;9.57;8.77;;;24.80;50.10;;;;;;5000468;28;20309;-44
2021/09/07 00:31:54;;;;;;;14.30;9.37;;;24.80;49.90;;;;;;5006316;28;20201;-45
2021/09/07 00:34:19;;;;;;;10.43;8.10;;;24.90;49.80;;;;;;5004966;28;20448;-45
2021/09/07 00:36:45;;;;;;;11.83;9.50;;;24.80;49.60;;;;;;5005129;28;20944;-46
2021/09/07 00:39:12;;;;;;;11.30;9.00;;;24.80;49.80;;;;;;5010467;28;20232;-45
2021/09/07 00:41:39;;;;;;;10.27;9.37;;;24.70;50.10;;;;;;5008712;28;21016;-45
2021/09/07 00:44:30;;;;;;;10.10;9.10;;;24.60;50.20;;;;;;5006649;28;20447;-46
2021/09/07 00:47:04;;;;;;;10.53;9.57;;;24.50;50.80;;;;;;5008856;28;20461;-48
2021/09/07 00:49:32;;;;;;;9.83;9.00;;;24.50;50.30;;;;;;5005601;28;20468;-45
2021/09/07 00:51:58;;;;;;;10.10;9.10;;;24.50;50.30;;;;;;5008404;28;20489;-46
2021/09/07 00:54:30;;;;;;;10.50;9.40;;;24.50;50.50;;;;;;5010612;28;20910;-47
2021/09/07 00:56:57;;;;;;;10.30;9.30;;;24.40;50.40;;;;;;5003606;28;20956;-45
2021/09/07 00:59:23;;;;;;;10.60;9.60;;;24.40;50.40;;;;;;5011726;28;20526;-47
2021/09/07 01:01:49;;;;;;;11.40;9.17;;;24.40;50.40;;;;;;5003001;28;20437;-49
2021/09/07 01:04:15;;;;;;;9.97;8.97;;;24.30;50.10;;;;;;5007155;28;20437;-48
2021/09/07 01:06:41;;;;;;;10.03;9.00;;;24.30;50.20;;;;;;5013107;28;20444;-45
2021/09/07 01:09:08;;;;;;;8.93;8.10;;;24.30;50.50;;;;;;5009513;28;20815;-46
2021/09/07 01:11:34;;;;;;;10.00;9.00;;;24.20;50.60;;;;;;5010681;28;20186;-45
2021/09/07 01:14:00;;;;;;;9.73;8.83;;;24.10;50.60;;;;;;5007130;28;20441;-45
2021/09/07 01:16:26;;;;;;;10.27;9.30;;;24.00;50.90;;;;;;5009541;28;20548;-47
2021/09/07 01:18:52;;;;;;;10.03;9.13;;;24.00;51.20;;;;;;5011334;28;20524;-46
2021/09/07 01:21:18;;;;;;;12.40;9.37;;;24.00;51.10;;;;;;5009200;28;20243;-45
2021/09/07 01:23:47;;;;;;;8.17;7.47;;;24.00;51.10;;;;;;5008316;28;20524;-46
2021/09/07 01:26:15;;;;;;;9.77;8.87;;;24.00;51.10;;;;;;5012066;28;20440;-45
2021/09/07 01:28:41;;;;;;;9.37;8.47;;;24.00;51.20;;;;;;5007182;28;20463;-46
2021/09/07 01:31:08;;;;;;;13.57;9.87;;;24.00;51.20;;;;;;5008139;28;20832;-46
2021/09/07 01:33:34;;;;;;;10.33;8.70;;;24.00;51.40;;;;;;5010855;28;20195;-45
2021/09/07 01:36:01;;;;;;;10.27;9.27;;;24.00;51.30;;;;;;5010807;28;20867;-45
2021/09/07 01:38:28;;;;;;;9.00;8.10;;;23.90;50.90;;;;;;5008701;28;20443;-46
2021/09/07 01:40:54;;;;;;;12.27;9.50;;;23.80;51.60;;;;;;5009385;28;20447;-44
2021/09/07 01:43:20;;;;;;;9.50;8.50;;;23.80;51.60;;;;;;5006543;28;20484;-50
2021/09/07 01:45:51;;;;;;;9.60;8.60;;;23.80;51.60;;;;;;5005681;28;20510;-45
2021/09/07 01:48:20;;;;;;;9.13;8.10;;;23.80;51.20;;;;;;5005432;28;20475;-50
2021/09/07 01:50:47;;;;;;;10.40;9.30;;;23.80;51.50;;;;;;5006133;28;20492;-45
2021/09/07 01:53:13;;;;;;;10.47;9.47;;;23.90;51.50;;;;;;5006998;28;20444;-46
2021/09/07 01:55:38;;;;;;;10.80;9.70;;;23.80;51.30;;;;;;5008401;28;20988;-46
2021/09/07 01:58:04;;;;;;;9.37;8.47;;;23.70;51.40;;;;;;5005784;28;20324;-48
2021/09/07 02:00:30;;;;;;;13.07;9.00;;;23.80;51.50;;;;;;5007348;28;20190;-45
2021/09/07 02:02:56;;;;;;;9.90;8.90;;;23.80;51.20;;;;;;5001209;28;20198;-45
2021/09/07 02:05:22;;;;;;;9.40;8.50;;;23.80;51.30;;;;;;5006206;28;20963;-45
2021/09/07 02:07:47;;;;;;;10.40;9.50;;;23.80;51.40;;;;;;5005947;28;20437;-45
2021/09/07 02:10:13;;;;;;;10.33;9.40;;;23.90;51.30;;;;;;5003094;28;20764;-46
2021/09/07 02:12:40;;;;;;;10.40;9.30;;;23.80;51.40;;;;;;5008250;28;20198;-45
2021/09/07 02:15:07;;;;;;;11.00;9.07;;;23.90;51.20;;;;;;5010579;28;20903;-44
2021/09/07 02:17:33;;;;;;;9.60;8.70;;;23.80;51.40;;;;;;5007477;28;20449;-45
2021/09/07 02:19:58;;;;;;;10.23;9.27;;;23.80;51.00;;;;;;5003794;28;20871;-46
2021/09/07 02:22:25;;;;;;;10.37;8.87;;;23.70;51.00;;;;;;5006988;28;20616;-46
2021/09/07 02:24:51;;;;;;;10.17;9.23;;;23.80;50.80;;;;;;5007809;28;20272;-47
2021/09/07 02:27:17;;;;;;;10.03;9.03;;;23.70;50.90;;;;;;5005787;28;20947;-46
2021/09/07 02:29:43;;;;;;;9.90;9.00;;;23.70;50.80;;;;;;5009665;28;20496;-47
2021/09/07 02:32:09;;;;;;;10.00;9.00;;;23.70;50.70;;;;;;5007659;28;20202;-48
2021/09/07 02:34:34;;;;;;;15.13;9.67;;;23.60;50.60;;;;;;4997125;28;20646;-48
2021/09/07 02:37:00;;;;;;;9.80;8.90;;;23.60;51.20;;;;;;5008816;28;20222;-47
2021/09/07 02:39:26;;;;;;;9.60;8.70;;;23.50;51.20;;;;;;5011031;28;20242;-45
2021/09/07 02:41:52;;;;;;;10.50;9.50;;;23.50;51.10;;;;;;5005776;28;20198;-45
2021/09/07 02:44:18;;;;;;;10.50;9.47;;;23.40;51.20;;;;;;5006823;28;20197;-47
2021/09/07 02:46:44;;;;;;;15.10;9.63;;;23.40;51.80;;;;;;5010443;28;20216;-46
2021/09/07 02:49:09;;;;;;;9.43;8.57;;;23.40;51.30;;;;;;5008625;28;21012;-47
2021/09/07 02:51:35;;;;;;;11.13;10.03;;;23.30;51.50;;;;;;5006474;28;20464;-46
2021/09/07 02:54:01;;;;;;;10.57;9.47;;;23.30;51.40;;;;;;5005974;28;20599;-50
2021/09/07 02:56:26;;;;;;;10.40;9.40;;;23.30;51.20;;;;;;5008644;28;20200;-47
2021/09/07 02:58:52;;;;;;;9.80;8.80;;;23.30;51.50;;;;;;5008641;28;20245;-49
2021/09/07 03:01:18;;;;;;;10.73;9.67;;;23.30;51.90;;;;;;5004223;28;20193;-45
2021/09/07 03:03:43;;;;;;;9.93;9.03;;;23.30;51.70;;;;;;5004231;28;20209;-45
2021/09/07 03:06:09;;;;;;;10.97;9.90;;;23.40;51.50;;;;;;5005929;28;20277;-47
2021/09/07 03:08:35;;;;;;;9.37;8.47;;;23.40;51.30;;;;;;5009989;28;20204;-48
2021/09/07 03:11:00;;;;;;;9.47;8.67;;;23.30;51.40;;;;;;5002991;28;20979;-45
2021/09/07 03:13:26;;;;;;;9.93;8.97;;;23.30;51.50;;;;;;5005884;28;20190;-47
2021/09/07 03:15:52;;;;;;;10.03;8.80;;;23.20;51.20;;;;;;5005199;28;20202;-45
2021/09/07 03:18:17;;;;;;;9.57;8.57;;;23.20;51.20;;;;;;5009164;28;20533;-44
2021/09/07 03:20:43;;;;;;;10.23;9.23;;;23.20;51.40;;;;;;5007704;28;20194;-47
2021/09/07 03:23:09;;;;;;;10.20;9.40;;;22.90;51.30;;;;;;5003767;28;20201;-48
2021/09/07 03:25:34;;;;;;;10.37;9.47;;;22.70;52.30;;;;;;5008128;28;20193;-44
2021/09/07 03:28:00;;;;;;;10.60;9.60;;;22.70;52.60;;;;;;5005968;28;20229;-44
2021/09/07 03:30:26;;;;;;;11.40;9.37;;;22.70;52.50;;;;;;4994149;28;20232;-50
2021/09/07 03:32:52;;;;;;;9.73;8.73;;;22.70;52.60;;;;;;5009293;28;20943;-45
2021/09/07 03:35:18;;;;;;;9.00;8.20;;;22.80;52.80;;;;;;5012778;28;20524;-46
2021/09/07 03:37:44;;;;;;;9.03;8.13;;;22.80;52.70;;;;;;5015210;28;20212;-45
2021/09/07 03:40:11;;;;;;;9.80;8.80;;;22.90;52.50;;;;;;5012320;28;20440;-46
2021/09/07 03:42:37;;;;;;;10.80;9.80;;;23.00;52.40;;;;;;5005461;28;20202;-51
2021/09/07 03:45:04;;;;;;;11.23;9.17;;;23.00;52.20;;;;;;5012337;28;20982;-51
2021/09/07 03:47:30;;;;;;;9.57;8.67;;;22.90;52.50;;;;;;5013328;28;20193;-45
2021/09/07 03:49:56;;;;;;;11.13;10.03;;;23.00;52.30;;;;;;5010612;28;20849;-47
2021/09/07 03:52:22;;;;;;;11.13;10.10;;;23.00;51.60;;;;;;5010275;28;20194;-45
2021/09/07 03:54:48;;;;;;;14.50;10.53;;;22.90;50.40;;;;;;5016056;28;20204;-45
2021/09/07 03:57:13;;;;;;;11.93;10.13;;;22.60;50.50;;;;;;5009560;28;20900;-47
2021/09/07 03:59:39;;;;;;;11.03;9.90;;;22.20;51.60;;;;;;5012239;28;20317;-46
2021/09/07 04:02:05;;;;;;;10.70;9.80;;;21.90;52.20;;;;;;5007112;28;20190;-46
2021/09/07 04:04:31;;;;;;;10.63;9.53;;;21.40;53.00;;;;;;5008531;28;20230;-47
2021/09/07 04:06:57;;;;;;;12.10;10.90;;;21.10;53.70;;;;;;5015531;28;20206;-48
2021/09/07 04:09:23;;;;;;;12.37;10.43;;;21.00;54.20;;;;;;5008478;28;20502;-51
2021/09/07 04:11:50;;;;;;;11.50;10.40;;;20.80;54.50;;;;;;5014598;28;20339;-45
2021/09/07 04:14:16;;;;;;;10.40;9.40;;;20.50;55.00;;;;;;5012371;28;21310;-46
2021/09/07 04:16:42;;;;;;;11.07;9.97;;;20.10;56.30;;;;;;5010972;28;20443;-47
2021/09/07 04:19:08;;;;;;;11.13;10.10;;;19.90;56.80;;;;;;5010256;28;20805;-47
2021/09/07 04:21:34;;;;;;;11.40;10.20;;;19.90;56.90;;;;;;5015097;28;20557;-48
2021/09/07 04:23:59;;;;;;;12.10;10.43;;;19.90;56.80;;;;;;5013357;28;20208;-48
2021/09/07 04:26:25;;;;;;;12.40;11.10;;;19.60;57.50;;;;;;5014891;28;20204;-49
2021/09/07 04:28:50;;;;;;;11.03;9.93;;;19.40;57.90;;;;;;5010251;28;20196;-46
2021/09/07 04:31:18;;;;;;;13.03;11.30;;;19.40;58.00;;;;;;5006354;28;20225;-48
2021/09/07 04:33:44;;;;;;;11.63;9.93;;;19.20;58.40;;;;;;5015932;28;20209;-46
2021/09/07 04:36:10;;;;;;;12.93;11.53;;;19.00;59.00;;;;;;5010669;28;20944;-47
2021/09/07 04:38:35;;;;;;;12.73;10.37;;;19.00;59.10;;;;;;5015467;28;20437;-47
2021/09/07 04:41:01;;;;;;;11.97;10.30;;;18.70;59.80;;;;;;5010642;28;20198;-46
2021/09/07 04:43:26;;;;;;;12.47;11.17;;;18.80;59.70;;;;;;5014731;28;20190;-49
2021/09/07 04:45:52;;;;;;;16.90;11.03;;;18.90;59.50;;;;;;5010358;28;20194;-50
2021/09/07 04:48:17;;;;;;;11.80;10.43;;;18.80;59.50;;;;;;5007496;28;20281;-46
2021/09/07 04:50:43;;;;;;;11.67;9.97;;;18.80;60.00;;;;;;5010061;28;20969;-45
2021/09/07 04:53:09;;;;;;;12.37;11.07;;;18.60;60.10;;;;;;5007335;28;20208;-48
2021/09/07 04:55:34;;;;;;;13.03;11.73;;;18.60;60.30;;;;;;5011960;28;20779;-46
2021/09/07 04:58:00;;;;;;;12.70;11.07;;;18.60;60.80;;;;;;5005759;28;20652;-47
2021/09/07 05:00:25;;;;;;;11.77;10.57;;;18.40;61.20;;;;;;5006972;28;20205;-47
2021/09/07 05:02:51;;;;;;;11.63;10.53;;;18.30;61.90;;;;;;5012589;28;20612;-47
2021/09/07 05:05:16;;;;;;;12.67;11.37;;;18.40;61.60;;;;;;5007510;28;20285;-46
2021/09/07 05:07:42;;;;;;;14.10;10.60;;;18.40;61.40;;;;;;5002941;28;20206;-45
2021/09/07 05:10:08;;;;;;;13.13;11.33;;;18.40;61.30;;;;;;5005232;28;20264;-48
2021/09/07 05:12:34;;;;;;;19.00;10.80;;;18.40;62.00;;;;;;4998758;28;20198;-47
2021/09/07 05:15:00;;;;;;;11.73;10.40;;;18.50;67.00;;;;;;5005534;28;20948;-47
2021/09/07 05:17:25;;;;;;;13.97;12.20;;;18.90;64.70;;;;;;5001589;28;20198;-47
2021/09/07 05:19:51;;;;;;;11.03;9.80;;;19.40;62.00;;;;;;5006418;28;20193;-45
2021/09/07 05:22:16;;;;;;;13.67;10.53;;;19.60;58.80;;;;;;5000928;28;20282;-47
2021/09/07 05:24:42;;;;;;;10.80;9.47;;;19.80;58.70;;;;;;5008499;28;20252;-50
2021/09/07 05:27:08;;;;;;;11.03;9.80;;;20.00;58.50;;;;;;5007959;28;20277;-45
2021/09/07 05:29:34;;;;;;;11.80;10.60;;;20.20;57.30;;;;;;5009962;28;20621;-45
2021/09/07 05:31:59;;;;;;;13.87;10.77;;;20.20;57.00;;;;;;5008042;28;20697;-45
2021/09/07 05:34:25;;;;;;;12.80;10.33;;;20.30;56.90;;;;;;5008654;28;20186;-48
2021/09/07 05:36:50;;;;;;;11.03;10.00;;;20.40;56.50;;;;;;5007725;28;20194;-47
2021/09/07 05:39:16;;;;;;;12.63;10.57;;;20.50;56.40;;;;;;5010564;28;20198;-47
2021/09/07 05:41:42;;;;;;;12.00;10.80;;;20.50;56.30;;;;;;5007919;28;20268;-44
2021/09/07 05:44:07;;;;;;;10.10;8.60;;;20.60;55.80;;;;;;4996871;28;20190;-47
2021/09/07 05:46:34;;;;;;;12.17;10.30;;;20.70;55.90;;;;;;5010669;28;20305;-47
2021/09/07 05:49:00;;;;;;;10.87;9.87;;;20.80;55.60;;;;;;5002851;28;20214;-45
2021/09/07 05:51:25;;;;;;;11.33;10.23;;;20.70;55.80;;;;;;5011289;28;20437;-47
2021/09/07 05:53:51;;;;;;;11.10;9.80;;;20.40;56.20;;;;;;5008020;28;20209;-46
2021/09/07 05:56:17;;;;;;;11.57;10.37;;;20.10;56.90;;;;;;4997706;28;20203;-45
2021/09/07 05:58:43;;;;;;;10.70;9.33;;;20.10;57.20;;;;;;5011449;28;20234;-45
2021/09/07 06:01:09;;;;;;;12.73;11.10;;;20.30;57.00;;;;;;5009262;28;20434;-45
2021/09/07 06:03:35;;;;;;;12.00;10.80;;;20.30;56.40;;;;;;5005496;28;20439;-46
2021/09/07 06:06:00;;;;;;;18.07;10.50;;;20.00;57.30;;;;;;5012071;28;20194;-46
2021/09/07 06:08:28;;;;;;;15.33;10.80;;;19.50;58.40;;;;;;5006946;28;20198;-48
2021/09/07 06:10:54;;;;;;;11.73;10.33;;;19.60;58.80;;;;;;5012279;28;20225;-46
2021/09/07 06:13:21;;;;;;;11.30;10.30;;;19.20;59.60;;;;;;5012167;28;20952;-47
2021/09/07 06:15:47;;;;;;;12.37;10.20;;;19.50;59.00;;;;;;5005936;28;20848;-51
2021/09/07 06:18:12;;;;;;;13.30;11.00;;;19.90;58.30;;;;;;4992998;28;20426;-46
2021/09/07 06:20:38;;;;;;;11.20;10.10;;;20.20;57.40;;;;;;5010039;28;20218;-46
2021/09/07 06:23:04;;;;;;;13.80;10.60;;;20.10;57.50;;;;;;5012502;28;20233;-45
2021/09/07 06:25:29;;;;;;;15.03;11.23;;;20.20;57.30;;;;;;5007948;28;20198;-46
2021/09/07 06:27:55;;;;;;;11.40;10.20;;;20.50;56.70;;;;;;4996414;28;20197;-46
2021/09/07 06:30:21;;;;;;;10.60;9.60;;;20.60;57.00;;;;;;5005731;28;20233;-46
2021/09/07 06:32:46;;;;;;;10.67;9.57;;;20.80;56.10;;;;;;5011899;28;20658;-47
2021/09/07 06:35:12;;;;;;;12.40;9.40;;;21.00;55.60;;;;;;5012413;28;20205;-48
2021/09/07 06:37:38;;;;;;;12.20;10.40;;;20.90;55.60;;;;;;5011881;28;20250;-46
2021/09/07 06:40:05;;;;;;;12.93;10.80;;;20.90;55.50;;;;;;5011881;28;20256;-46
2021/09/07 06:42:31;;;;;;;11.80;10.47;;;20.90;55.60;;;;;;5010245;28;20473;-46
2021/09/07 06:44:57;;;;;;;12.20;10.63;;;21.10;55.50;;;;;;4994479;28;20519;-49
2021/09/07 06:47:23;;;;;;;11.40;10.30;;;20.80;55.60;;;;;;4999470;28;20666;-46
2021/09/07 06:49:48;;;;;;;13.13;10.90;;;20.70;56.40;;;;;;4997852;28;20226;-46
2021/09/07 06:52:14;;;;;;;11.57;10.43;;;20.70;56.20;;;;;;5010484;28;20264;-51
2021/09/07 06:54:39;;;;;;;12.20;10.97;;;20.70;56.50;;;;;;5007881;28;20666;-47
2021/09/07 06:57:05;;;;;;;11.60;10.40;;;20.70;56.10;;;;;;4995566;28;20196;-45
2021/09/07 06:59:31;;;;;;;12.23;10.23;;;20.70;56.50;;;;;;4999237;28;20321;-46
2021/09/07 07:01:56;;;;;;;11.47;10.27;;;21.00;56.10;;;;;;5009679;28;20274;-45
2021/09/07 07:04:22;;;;;;;13.70;12.30;;;21.10;55.70;;;;;;5008355;28;20557;-46
2021/09/07 07:06:47;;;;;;;15.93;12.40;;;21.30;55.30;;;;;;5010662;28;20205;-45
2021/09/07 07:09:13;;;;;;;11.50;10.40;;;21.10;55.60;;;;;;5009196;28;20198;-45
2021/09/07 07:11:40;;;;;;;11.73;9.23;;;20.80;56.60;;;;;;5008402;28;20608;-46
2021/09/07 07:14:05;;;;;;;12.40;11.20;;;21.10;56.20;;;;;;5010444;28;20201;-46
2021/09/07 07:16:31;;;;;;;12.57;11.13;;;21.50;55.60;;;;;;5001089;28;20441;-47
2021/09/07 07:18:56;;;;;;;10.17;9.17;;;21.80;55.00;;;;;;5010898;28;20237;-47
2021/09/07 07:21:22;;;;;;;12.57;11.30;;;22.00;54.50;;;;;;5011139;28;20193;-45
2021/09/07 07:23:48;;;;;;;11.67;10.50;;;22.10;54.30;;;;;;5004857;28;20661;-46
2021/09/07 07:26:13;;;;;;;11.77;10.60;;;21.80;54.50;;;;;;5011037;28;20198;-47
2021/09/07 07:28:39;;;;;;;12.80;10.97;;;21.50;55.60;;;;;;5001971;28;20204;-46
2021/09/07 07:31:05;;;;;;;13.40;11.30;;;21.70;56.00;;;;;;5009342;28;20323;-45
2021/09/07 07:33:30;;;;;;;12.10;10.90;;;21.80;54.90;;;;;;5008509;28;20229;-46
2021/09/07 07:35:56;;;;;;;13.97;10.60;;;21.80;55.20;;;;;;5007521;28;20554;-47
2021/09/07 07:38:21;;;;;;;10.50;9.40;;;22.10;54.90;;;;;;5005190;28;20201;-46
2021/09/07 07:40:47;;;;;;;10.17;9.03;;;22.10;54.70;;;;;;5006856;28;20200;-46
2021/09/07 07:43:13;;;;;;;13.43;11.03;;;22.30;54.80;;;;;;5010517;28;20192;-46
2021/09/07 07:45:38;;;;;;;11.30;9.83;;;22.60;54.10;;;;;;5010093;28;20193;-47
2021/09/07 07:48:04;;;;;;;11.03;10.03;;;22.90;53.70;;;;;;5005255;28;20255;-45
2021/09/07 07:50:30;;;;;;;10.33;9.20;;;23.10;53.40;;;;;;5009309;28;20712;-45
2021/09/07 07:52:58;;;;;;;9.97;9.03;;;23.50;52.60;;;;;;5008309;28;21062;-48
2021/09/07 07:55:23;;;;;;;12.40;9.20;;;23.90;52.10;;;;;;5002051;28;20452;-46
2021/09/07 07:57:49;;;;;;;11.93;8.73;;;24.20;51.50;;;;;;4997533;28;20476;-47
2021/09/07 08:00:15;;;;;;;10.90;9.80;;;24.40;50.60;;;;;;5010611;28;20198;-45
2021/09/07 08:02:41;;;;;;;11.63;9.87;;;24.70;50.40;;;;;;5006819;28;20187;-45
2021/09/07 08:05:07;;;;;;;11.23;10.13;;;24.80;49.70;;;;;;5006730;28;20194;-45
2021/09/07 08:07:33;;;;;;;11.27;9.97;;;24.80;49.40;;;;;;5008911;28;20611;-46
2021/09/07 08:09:58;;;;;;;9.83;8.93;;;24.50;49.60;;;;;;5009679;28;20237;-46
2021/09/07 08:12:24;;;;;;;11.53;10.53;;;24.50;49.70;;;;;;5011086;28;20567;-45
2021/09/07 08:14:50;;;;;;;10.07;9.07;;;24.50;50.10;;;;;;5004133;28;20213;-47
2021/09/07 08:17:15;;;;;;;14.43;9.50;;;24.80;50.00;;;;;;5002940;28;20654;-46
2021/09/07 08:19:41;;;;;;;11.10;10.00;;;25.10;49.90;;;;;;4991593;28;20264;-46
2021/09/07 08:22:09;;;;;;;14.00;9.83;;;25.40;48.70;;;;;;4995841;28;20198;-45
2021/09/07 08:24:35;;;;;;;11.40;9.73;;;25.50;47.90;;;;;;5006648;28;20486;-46
2021/09/07 08:27:01;;;;;;;10.20;9.20;;;25.70;47.10;;;;;;5009083;28;20441;-46
2021/09/07 08:29:27;;;;;;;10.70;8.90;;;25.90;46.90;;;;;;5013417;28;20530;-47
2021/09/07 08:31:52;;;;;;;11.03;9.80;;;26.10;46.80;;;;;;5012056;28;20204;-46
2021/09/07 08:34:18;;;;;;;10.07;8.97;;;26.10;46.30;;;;;;5014300;28;20226;-46
2021/09/07 08:36:43;;;;;;;13.77;9.27;;;26.20;45.80;;;;;;5013576;28;20190;-46
2021/09/07 08:39:09;;;;;;;10.57;8.50;;;26.40;45.80;;;;;;5008328;28;20204;-46
2021/09/07 08:41:35;;;;;;;10.03;9.07;;;26.50;45.90;;;;;;5012799;28;20213;-46
2021/09/07 08:44:00;;;;;;;10.80;9.77;;;26.60;45.20;;;;;;5013531;28;20265;-46
2021/09/07 08:46:26;;;;;;;10.20;9.30;;;26.70;44.90;;;;;;5014015;28;20225;-48
2021/09/07 08:48:51;;;;;;;12.53;8.80;;;26.80;44.30;;;;;;5012972;28;20205;-47
2021/09/07 08:51:18;;;;;;;11.13;9.70;;;27.00;45.20;;;;;;5011047;28;20690;-47
2021/09/07 08:53:44;;;;;;;10.70;9.60;;;27.00;44.30;;;;;;5007810;28;20196;-46
2021/09/07 08:56:11;;;;;;;9.90;8.50;;;27.00;44.40;;;;;;5007368;28;20863;-46
2021/09/07 08:58:38;;;;;;;9.37;8.43;;;27.20;43.90;;;;;;5000224;28;20479;-50
2021/09/07 09:01:17;;;;;;;14.20;9.50;;;27.30;43.70;;;;;;5014230;28;20440;-46
2021/09/07 09:03:46;;;;;;;10.17;9.27;;;27.50;43.50;;;;;;5001334;28;20543;-46
2021/09/07 09:06:13;;;;;;;12.13;8.63;;;27.60;43.40;;;;;;5002429;28;20471;-46
2021/09/07 09:08:39;;;;;;;9.10;8.20;;;27.70;43.30;;;;;;5000891;28;20456;-46
2021/09/07 09:11:06;;;;;;;9.97;9.07;;;27.80;43.10;;;;;;5002393;28;20485;-45
2021/09/07 09:13:46;;;;;;;11.37;10.17;;;27.90;43.60;;;;;;4994532;28;20476;-45
2021/09/07 09:16:13;;;;;;;10.80;9.80;;;28.10;43.70;;;;;;5002228;28;20440;-46
2021/09/07 09:18:42;;;;;;;9.77;8.77;;;28.20;43.90;;;;;;5010026;28;20936;-47
2021/09/07 09:21:27;;;;;;;9.23;8.33;;;28.20;43.40;;;;;;5010140;28;20436;-46
2021/09/07 09:24:17;;;;;;;9.90;9.00;;;28.50;44.10;;;;;;5009099;28;20445;-45
2021/09/07 09:27:00;;;;;;;9.37;8.57;;;28.60;43.50;;;;;;5010972;28;20527;-47
2021/09/07 09:29:26;;;;;;;9.10;8.20;;;28.70;43.80;;;;;;5011441;28;20558;-46
2021/09/07 09:31:54;;;;;;;9.33;8.43;;;28.80;42.40;;;;;;5008087;28;20444;-48
2021/09/07 09:34:20;;;;;;;10.30;9.20;;;28.90;41.60;;;;;;5009486;28;20425;-46
2021/09/07 09:37:03;;;;;;;9.40;8.57;;;28.80;40.70;;;;;;4998310;28;20453;-47
2021/09/07 09:39:37;;;;;;;10.33;9.30;;;28.80;42.00;;;;;;5005390;28;20229;-46
2021/09/07 09:42:03;;;;;;;10.07;8.70;;;28.70;42.50;;;;;;5004425;28;20524;-51
2021/09/07 09:44:29;;;;;;;9.87;8.97;;;28.90;42.60;;;;;;5006617;28;20457;-47
2021/09/07 09:46:54;;;;;;;9.00;8.20;;;29.10;42.10;;;;;;5011621;28;20445;-45
2021/09/07 09:49:21;;;;;;;10.57;8.83;;;29.10;41.60;;;;;;5004319;28;20209;-45
2021/09/07 09:51:48;;;;;;;10.03;8.90;;;29.40;41.10;;;;;;5011435;28;20190;-46
2021/09/07 09:54:15;;;;;;;9.77;8.93;;;29.50;41.10;;;;;;5010078;28;20520;-45
2021/09/07 09:56:41;;;;;;;9.43;8.43;;;29.60;41.10;;;;;;5010597;28;20806;-46
2021/09/07 09:59:07;;;;;;;8.70;7.80;;;29.60;38.40;;;;;;5010505;28;20492;-45
2021/09/07 10:01:34;;;;;;;8.97;8.07;;;29.80;37.70;;;;;;5011226;28;20475;-46
2021/09/07 10:04:01;;;;;;;8.50;7.70;;;30.10;37.90;;;;;;5011134;28;20498;-46
2021/09/07 10:06:27;;;;;;;8.70;7.90;;;30.30;38.30;;;;;;5010099;28;20975;-47
2021/09/07 10:08:53;;;;;;;8.50;7.70;;;30.20;36.30;;;;;;5010210;28;20574;-48
2021/09/07 10:11:26;;;;;;;7.33;6.63;;;30.20;35.80;;;;;;5012180;28;20571;-45
2021/09/07 10:13:56;;;;;;;9.30;8.00;;;30.10;36.90;;;;;;5011388;28;20531;-45
2021/09/07 10:16:29;;;;;;;9.50;8.53;;;30.10;36.70;;;;;;5012635;28;20428;-45
2021/09/07 10:18:58;;;;;;;9.27;8.37;;;30.50;36.50;;;;;;5009824;28;20455;-46
2021/09/07 10:26:39;;;;;;;9.07;7.87;;;31.10;35.30;;;;;;5012104;28;20449;-46
2021/09/07 10:29:09;;;;;;;9.03;7.70;;;31.10;34.80;;;;;;5009535;28;21015;-46
2021/09/07 10:32:20;;;;;;;8.27;7.50;;;31.20;34.20;;;;;;5011816;28;20206;-46
2021/09/07 10:35:10;;;;;;;8.47;7.67;;;31.40;35.10;;;;;;5008377;28;20441;-46
2021/09/07 10:38:05;;;;;;;8.03;7.33;;;31.70;34.30;;;;;;5005187;28;20536;-45
2021/09/07 10:40:46;;;;;;;8.40;7.70;;;31.50;33.30;;;;;;5009248;28;20946;-47
2021/09/07 10:43:11;;;;;;;9.03;8.10;;;31.70;34.60;;;;;;5007299;28;20514;-45
2021/09/07 10:45:38;;;;;;;9.00;7.53;;;31.90;35.90;;;;;;5011848;28;20499;-46
2021/09/07 10:48:33;;;;;;;8.33;7.63;;;31.20;34.30;;;;;;5011072;28;20243;-45
2021/09/07 10:51:01;;;;;;;9.07;8.20;;;30.10;36.50;;;;;;5006214;28;20492;-45
2021/09/07 10:53:26;;;;;;;9.10;8.20;;;30.10;36.10;;;;;;5010651;28;20859;-46
2021/09/07 10:55:52;;;;;;;9.40;8.60;;;30.30;37.40;;;;;;5012275;28;20474;-45
2021/09/07 10:58:35;;;;;;;8.67;7.60;;;30.90;37.40;;;;;;5008939;28;20230;-45
2021/09/07 11:01:30;;;;;;;8.03;7.33;;;31.40;35.90;;;;;;5011076;28;20572;-45
2021/09/07 11:04:32;;;;;;;7.83;7.17;;;31.90;34.30;;;;;;5003994;28;20453;-48
2021/09/07 11:07:00;;;;;;;8.63;7.93;;;32.30;34.50;;;;;;5011818;28;20444;-46
2021/09/07 11:09:58;;;;;;;8.70;7.80;;;32.10;33.60;;;;;;5008104;28;20489;-45
2021/09/07 11:12:29;;;;;;;8.40;7.70;;;32.20;34.50;;;;;;4980181;28;20457;-45
2021/09/07 11:15:07;;;;;;;9.50;8.60;;;32.10;33.70;;;;;;5001697;28;20442;-47
2021/09/07 11:17:33;;;;;;;9.30;8.20;;;31.90;34.00;;;;;;5001297;28;20445;-45
2021/09/07 11:20:03;;;;;;;8.87;8.03;;;31.40;34.50;;;;;;5010136;28;20444;-45
2021/09/07 11:22:30;;;;;;;7.90;7.20;;;31.50;34.70;;;;;;5008930;28;20486;-49
2021/09/07 11:25:08;;;;;;;8.20;7.50;;;31.90;34.20;;;;;;5007735;28;20531;-47
2021/09/07 11:27:58;;;;;;;8.20;7.27;;;32.30;33.90;;;;;;5010782;28;20837;-45
2021/09/07 11:30:34;;;;;;;8.70;8.00;;;32.70;33.80;;;;;;5007108;28;20557;-49
2021/09/07 11:33:09;;;;;;;7.80;7.20;;;33.00;32.60;;;;;;5015111;28;20436;-46
2021/09/07 11:35:50;;;;;;;8.47;7.70;;;33.10;32.00;;;;;;5009410;28;20528;-47
2021/09/07 11:38:21;;;;;;;8.13;7.40;;;33.20;31.60;;;;;;5007807;28;20501;-46
2021/09/07 11:40:51;;;;;;;8.20;7.40;;;33.40;32.10;;;;;;5010080;28;20440;-45
2021/09/07 11:43:39;;;;;;;8.70;8.00;;;33.50;31.60;;;;;;5005582;28;20441;-45
2021/09/07 11:46:12;;;;;;;8.60;7.77;;;33.70;31.80;;;;;;5008421;28;20441;-46
2021/09/07 11:48:39;;;;;;;8.20;7.50;;;33.80;32.40;;;;;;5008081;28;20437;-48
2021/09/07 11:51:07;;;;;;;9.37;8.47;;;33.80;31.50;;;;;;5001987;28;20499;-47
2021/09/07 11:53:33;;;;;;;7.53;6.93;;;33.90;32.10;;;;;;5004897;28;20429;-53
2021/09/07 11:56:00;;;;;;;9.20;8.40;;;33.80;31.60;;;;;;5010883;28;20451;-52
2021/09/07 11:58:33;;;;;;;9.63;8.70;;;34.00;31.60;;;;;;5008172;28;21847;-49
2021/09/07 12:01:10;;;;;;;8.03;7.33;;;33.90;31.30;;;;;;5009374;28;20444;-47
2021/09/07 12:03:52;;;;;;;7.87;7.17;;;33.60;30.40;;;;;;5011565;28;21121;-49
2021/09/07 12:06:38;;;;;;;8.60;7.90;;;33.70;30.00;;;;;;5008969;28;20453;-46
2021/09/07 12:09:23;;;;;;;9.37;7.83;;;33.80;30.40;;;;;;5008013;28;20538;-48
2021/09/07 12:12:04;;;;;;;8.20;7.60;;;33.80;30.50;;;;;;5006304;28;20448;-50
2021/09/07 12:14:38;;;;;;;9.23;8.23;;;33.90;30.60;;;;;;5026263;28;20909;-50
2021/09/07 12:17:06;;;;;;;9.50;8.63;;;33.80;29.60;;;;;;5011745;28;20440;-47
2021/09/07 12:19:37;;;;;;;8.63;7.83;;;33.80;29.80;;;;;;5011364;28;20860;-45
2021/09/07 12:22:11;;;;;;;8.63;7.83;;;33.70;29.60;;;;;;5012916;28;20441;-46
2021/09/07 12:24:38;;;;;;;7.70;7.10;;;33.40;29.80;;;;;;5008327;28;20488;-48
2021/09/07 12:27:27;;;;;;;8.90;8.10;;;33.00;30.50;;;;;;5012634;28;20444;-46
2021/09/07 12:30:10;;;;;;;7.90;7.30;;;32.60;29.50;;;;;;5006798;28;20490;-48
2021/09/07 12:32:59;;;;;;;8.47;7.67;;;32.80;30.00;;;;;;5010986;28;21281;-50
2021/09/07 12:35:40;;;;;;;8.27;7.60;;;33.00;30.50;;;;;;5012027;28;20448;-48
2021/09/07 12:38:11;;;;;;;7.53;6.93;;;33.10;30.00;;;;;;5006703;28;20444;-46
2021/09/07 12:40:40;;;;;;;8.20;7.47;;;33.50;30.00;;;;;;5011676;28;20437;-49
2021/09/07 12:43:18;;;;;;;8.03;7.40;;;33.80;29.50;;;;;;5010394;28;20480;-47
2021/09/07 12:46:07;;;;;;;7.63;6.73;;;34.00;29.00;;;;;;5011022;28;20919;-47
2021/09/07 12:48:35;;;;;;;8.27;7.57;;;33.90;28.80;;;;;;5008217;28;20515;-45